Terminal Aerodrome Forecast
Issued by NWS North Platte, NE

Home | Current Version | Previous Version | Text Only | Print | Product List | Glossary Off
Versions: 1 2 3 4 5 6 7 8 9 10 11 12 13 14 15

948
FTUS43 KLBF 051954 AAA
TAFVTN
TAF AMD
KVTN 051954Z 0520/0618 31014G24KT P6SM BKN025 OVC035
     FM052300 31010KT P6SM SCT060
     FM060200 28007KT P6SM FEW250
     FM060800 25007KT P6SM FEW250=

USA.gov is the U.S. government's official web portal to all federal, state and local government web resources and services.